createdAt,value
2022-10-24T00:00:48.741Z,1001.41
2022-10-24T00:01:48.707Z,1001.44
2022-10-24T00:02:48.865Z,1001.41
2022-10-24T00:03:48.757Z,1001.38
2022-10-24T00:04:48.783Z,1001.38
2022-10-24T00:05:48.821Z,1001.36
2022-10-24T00:06:48.830Z,1001.34
2022-10-24T00:07:48.864Z,1001.32
2022-10-24T00:08:48.879Z,1001.36
2022-10-24T00:09:48.903Z,1001.34
2022-10-24T00:10:48.957Z,1001.30
2022-10-24T00:11:48.955Z,1001.31
2022-10-24T00:12:48.996Z,1001.30
2022-10-24T00:13:49.002Z,1001.28
2022-10-24T00:14:49.030Z,1001.27
2022-10-24T00:15:49.052Z,1001.28
2022-10-24T00:16:49.078Z,1001.32
2022-10-24T00:17:49.114Z,1001.35
2022-10-24T00:18:49.123Z,1001.38
2022-10-24T00:19:49.155Z,1001.35
2022-10-24T00:20:49.180Z,1001.35
2022-10-24T00:21:49.200Z,1001.31
2022-10-24T00:22:49.224Z,1001.32
2022-10-24T00:23:49.247Z,1001.30
2022-10-24T00:24:49.275Z,1001.31
2022-10-24T00:25:49.298Z,1001.34
2022-10-24T00:26:49.325Z,1001.30
2022-10-24T00:27:49.350Z,1001.28
2022-10-24T00:28:49.453Z,1001.30
2022-10-24T00:29:49.400Z,1001.28
2022-10-24T00:30:49.431Z,1001.30
2022-10-24T00:31:49.449Z,1001.30
2022-10-24T00:32:49.475Z,1001.29
2022-10-24T00:33:49.494Z,1001.30
2022-10-24T00:34:49.517Z,1001.30
2022-10-24T00:35:49.548Z,1001.33
2022-10-24T00:36:49.568Z,1001.28
2022-10-24T00:37:49.593Z,1001.26
2022-10-24T00:38:49.619Z,1001.29
2022-10-24T00:39:49.646Z,1001.27
2022-10-24T00:40:49.748Z,1001.27
2022-10-24T00:41:49.695Z,1001.29
2022-10-24T00:42:49.718Z,1001.26
2022-10-24T00:43:49.740Z,1001.22
2022-10-24T00:44:49.765Z,1001.21
2022-10-24T00:45:49.792Z,1001.17
2022-10-24T00:46:49.819Z,1001.17
2022-10-24T00:47:49.843Z,1001.17
2022-10-24T00:48:49.867Z,1001.17
2022-10-24T00:49:49.893Z,1001.14
2022-10-24T00:50:49.916Z,1001.15
2022-10-24T00:51:49.942Z,1001.11
2022-10-24T00:52:49.970Z,1001.09
2022-10-24T00:53:50.065Z,1001.07
2022-10-24T00:54:50.014Z,1001.07
2022-10-24T00:55:50.047Z,1001.05
2022-10-24T00:56:50.065Z,1001.01
2022-10-24T00:57:50.111Z,1001.04
2022-10-24T00:58:50.118Z,1001.04
2022-10-24T00:59:50.135Z,1001.01
2022-10-24T01:00:50.226Z,1001.02
2022-10-24T01:01:50.233Z,1001.04
2022-10-24T01:02:50.214Z,1001.01
2022-10-24T01:03:50.237Z,1000.97
2022-10-24T01:04:50.265Z,1000.97
2022-10-24T01:05:50.300Z,1000.91
2022-10-24T01:06:50.307Z,1000.90
2022-10-24T01:07:50.337Z,1000.83
2022-10-24T01:08:50.376Z,1000.85
2022-10-24T01:09:50.383Z,1000.88
2022-10-24T01:10:50.412Z,1000.91
2022-10-24T01:11:50.458Z,1000.91
2022-10-24T01:12:50.502Z,1000.93
2022-10-24T01:13:50.484Z,1000.97
2022-10-24T01:14:50.509Z,1000.90
2022-10-24T01:15:50.549Z,1000.88
2022-10-24T01:16:50.562Z,1000.85
2022-10-24T01:17:50.589Z,1000.87
2022-10-24T01:18:50.654Z,1000.87
2022-10-24T01:19:50.628Z,1000.93
2022-10-24T01:20:50.656Z,1000.87
2022-10-24T01:21:50.682Z,1000.90
2022-10-24T01:22:50.704Z,1000.83
2022-10-24T01:23:50.731Z,1000.83
2022-10-24T01:24:50.758Z,1000.81
2022-10-24T01:25:50.777Z,1000.85
2022-10-24T01:26:50.802Z,1000.81
2022-10-24T01:27:50.828Z,1000.82
2022-10-24T01:28:50.849Z,1000.84
2022-10-24T01:29:50.873Z,1000.81
2022-10-24T01:30:50.900Z,1000.78
2022-10-24T01:31:50.926Z,1000.76
2022-10-24T01:32:50.950Z,1000.73
2022-10-24T01:33:50.975Z,1000.72
2022-10-24T01:34:51.010Z,1000.69
2022-10-24T01:35:51.021Z,1000.67
2022-10-24T01:36:51.047Z,1000.70
2022-10-24T01:37:51.075Z,1000.72
2022-10-24T01:38:51.102Z,1000.70
2022-10-24T01:39:51.126Z,1000.76
2022-10-24T01:40:51.142Z,1000.72
2022-10-24T01:41:51.188Z,1000.68
2022-10-24T01:42:51.193Z,1000.62
2022-10-24T01:43:51.217Z,1000.61
2022-10-24T01:44:51.246Z,1000.58
2022-10-24T01:45:51.277Z,1000.59
2022-10-24T01:46:51.298Z,1000.59
2022-10-24T01:47:51.322Z,1000.56
2022-10-24T01:48:51.346Z,1000.53
2022-10-24T01:49:51.368Z,1000.51
2022-10-24T01:50:51.395Z,1000.44
2022-10-24T01:51:51.420Z,1000.43
2022-10-24T01:52:51.440Z,1000.38
2022-10-24T01:53:51.464Z,1000.40
2022-10-24T01:54:51.485Z,1000.44
2022-10-24T01:55:51.512Z,1000.43
2022-10-24T01:56:51.564Z,1000.44
2022-10-24T01:57:51.562Z,1000.42
2022-10-24T01:58:51.610Z,1000.44
2022-10-24T01:59:51.614Z,1000.46
2022-10-24T02:00:51.634Z,1000.47
2022-10-24T02:01:51.683Z,1000.48
2022-10-24T02:02:51.687Z,1000.47
2022-10-24T02:03:51.710Z,1000.49
2022-10-24T02:04:51.735Z,1000.48
2022-10-24T02:05:51.756Z,1000.43
2022-10-24T02:06:51.782Z,1000.40
2022-10-24T02:07:51.808Z,1000.38
2022-10-24T02:08:51.877Z,1000.35
2022-10-24T02:09:51.857Z,1000.33
2022-10-24T02:10:51.884Z,1000.27
2022-10-24T02:11:51.904Z,1000.30
2022-10-24T02:12:51.933Z,1000.27
2022-10-24T02:13:51.955Z,1000.26
2022-10-24T02:14:51.975Z,1000.25
2022-10-24T02:15:52.016Z,1000.27
2022-10-24T02:16:52.032Z,1000.26
2022-10-24T02:17:52.062Z,1000.24
2022-10-24T02:18:52.076Z,1000.27
2022-10-24T02:19:52.101Z,1000.22
2022-10-24T02:20:52.127Z,1000.18
2022-10-24T02:21:52.153Z,1000.20
2022-10-24T02:22:52.176Z,1000.16
2022-10-24T02:23:52.196Z,1000.16
2022-10-24T02:24:52.227Z,1000.11
2022-10-24T02:25:52.251Z,1000.15
2022-10-24T02:26:52.278Z,1000.15
2022-10-24T02:27:52.304Z,1000.17
2022-10-24T02:28:52.320Z,1000.15
2022-10-24T02:29:52.345Z,1000.11
2022-10-24T02:30:52.366Z,1000.13
2022-10-24T02:31:52.403Z,1000.08
2022-10-24T02:32:52.414Z,1000.10
2022-10-24T02:33:52.446Z,1000.11
2022-10-24T02:34:52.467Z,1000.09
2022-10-24T02:35:52.491Z,1000.06
2022-10-24T02:36:52.522Z,1000.02
2022-10-24T02:37:52.539Z,1000.03
2022-10-24T02:38:52.566Z,1000.02
2022-10-24T02:39:52.591Z,1000.02
2022-10-24T02:40:52.618Z,999.98
2022-10-24T02:41:52.647Z,999.99
2022-10-24T02:42:52.665Z,1000.02
2022-10-24T02:43:52.686Z,999.97
2022-10-24T02:44:52.718Z,999.96
2022-10-24T02:45:52.740Z,999.91
2022-10-24T02:46:52.759Z,999.95
2022-10-24T02:47:52.786Z,999.87
2022-10-24T02:48:52.812Z,999.89
2022-10-24T02:49:52.834Z,999.88
2022-10-24T02:50:52.856Z,999.85
2022-10-24T02:51:52.884Z,999.84
2022-10-24T02:52:52.907Z,999.85
2022-10-24T02:53:52.934Z,999.85
2022-10-24T02:54:52.955Z,999.86
2022-10-24T02:55:52.978Z,999.86
2022-10-24T02:57:00.179Z,999.89
2022-10-24T02:58:57.533Z,999.88
2022-10-24T02:59:57.054Z,999.93
2022-10-24T03:02:01.061Z,999.89
2022-10-24T03:03:01.073Z,999.86
2022-10-24T03:04:54.552Z,999.86
2022-10-24T03:05:54.235Z,999.85
2022-10-24T03:07:58.252Z,999.84
2022-10-24T03:08:58.268Z,999.86
2022-10-24T03:11:02.759Z,999.83
2022-10-24T03:12:02.291Z,999.82
2022-10-24T03:14:06.322Z,999.79
2022-10-24T03:15:06.327Z,999.81
2022-10-24T03:17:10.818Z,999.84
2022-10-24T03:18:10.378Z,999.81
2022-10-24T03:20:14.377Z,999.81
2022-10-24T03:21:14.401Z,999.84
2022-10-24T03:23:07.877Z,999.82
2022-10-24T03:26:00.679Z,999.79
2022-10-24T03:27:00.536Z,999.83
2022-10-24T03:29:05.036Z,999.80
2022-10-24T03:30:04.562Z,999.79
2022-10-24T03:32:08.572Z,999.80
2022-10-24T03:33:08.591Z,999.83
2022-10-24T03:35:14.226Z,999.85
2022-10-24T03:36:12.634Z,999.85
2022-10-24T03:38:16.633Z,999.90
2022-10-24T03:39:16.645Z,999.83
2022-10-24T03:41:21.160Z,999.84
2022-10-24T03:42:20.718Z,999.81
2022-10-24T03:44:24.699Z,999.78
2022-10-24T03:45:24.716Z,999.80
2022-10-24T03:47:29.711Z,999.76
2022-10-24T03:48:28.810Z,999.75
2022-10-24T03:50:32.780Z,999.82
2022-10-24T03:51:32.796Z,999.75
2022-10-24T03:53:26.271Z,999.75
2022-10-24T03:54:25.761Z,999.76
2022-10-24T03:56:29.782Z,999.78
2022-10-24T03:57:29.863Z,999.80
2022-10-24T03:59:34.297Z,999.80
2022-10-24T04:00:33.827Z,999.82
2022-10-24T04:02:26.773Z,999.82
2022-10-24T04:03:26.783Z,999.83
2022-10-24T04:05:31.336Z,999.85
2022-10-24T04:06:33.988Z,999.79
2022-10-24T04:08:34.831Z,999.78
2022-10-24T04:09:34.847Z,999.77
2022-10-24T04:11:39.338Z,999.81
2022-10-24T04:12:38.881Z,999.81
2022-10-24T04:14:42.890Z,999.82
2022-10-24T04:15:42.911Z,999.78
2022-10-24T04:17:47.639Z,999.81
2022-10-24T04:18:46.946Z,999.81
2022-10-24T04:20:50.948Z,999.78
2022-10-24T04:21:50.963Z,999.80
2022-10-24T04:23:55.455Z,999.85
2022-10-24T04:24:54.998Z,999.81
2022-10-24T04:26:59.597Z,999.98
2022-10-24T04:27:59.222Z,999.97
2022-10-24T04:30:03.713Z,1000.01
2022-10-24T04:31:03.267Z,1000.05
2022-10-24T04:32:56.202Z,1000.08
2022-10-24T04:33:56.215Z,1000.03
2022-10-24T04:36:00.714Z,1000.03
2022-10-24T04:37:00.242Z,1000.03
2022-10-24T04:39:04.268Z,999.97
2022-10-24T04:40:04.281Z,999.96
2022-10-24T04:41:57.770Z,999.95
2022-10-24T04:42:57.425Z,999.91
2022-10-24T04:45:01.447Z,999.98
2022-10-24T04:46:01.455Z,999.99
2022-10-24T04:48:05.954Z,1000.02
2022-10-24T04:49:05.490Z,1000.00
2022-10-24T04:51:09.511Z,1000.00
2022-10-24T04:52:09.546Z,999.98
2022-10-24T04:54:14.021Z,1000.02
2022-10-24T04:55:13.583Z,1000.03
2022-10-24T04:57:17.577Z,1000.04
2022-10-24T04:58:17.590Z,1000.03
2022-10-24T05:00:22.092Z,999.98
2022-10-24T05:01:21.651Z,999.99
2022-10-24T05:03:14.565Z,999.98
2022-10-24T05:04:14.579Z,1000.02
2022-10-24T05:06:19.085Z,999.97
2022-10-24T05:07:18.625Z,999.99
2022-10-24T05:09:22.635Z,999.98
2022-10-24T05:10:22.657Z,999.94
2022-10-24T05:12:27.165Z,999.98
2022-10-24T05:13:26.690Z,999.93
2022-10-24T05:15:30.703Z,999.95
2022-10-24T05:16:30.716Z,999.97
2022-10-24T05:18:35.205Z,999.95
2022-10-24T05:19:34.749Z,999.95
2022-10-24T05:21:38.767Z,999.89
2022-10-24T05:22:38.781Z,999.89
2022-10-24T05:24:43.278Z,999.93
2022-10-24T05:25:42.806Z,999.87
2022-10-24T05:27:46.832Z,999.87
2022-10-24T05:28:51.585Z,999.91
2022-10-24T05:30:51.344Z,999.86
2022-10-24T05:31:50.872Z,999.84
2022-10-24T05:33:54.895Z,999.81
2022-10-24T05:34:54.911Z,999.78
2022-10-24T05:36:59.404Z,999.85
2022-10-24T05:37:58.935Z,999.81
2022-10-24T05:40:02.951Z,999.86
2022-10-24T05:41:02.970Z,999.87
2022-10-24T05:42:56.446Z,999.91
2022-10-24T05:43:55.923Z,999.95
2022-10-24T05:45:59.934Z,999.87
2022-10-24T05:46:59.945Z,999.87
2022-10-24T05:49:04.446Z,999.89
2022-10-24T05:50:03.980Z,999.93
2022-10-24T05:52:07.989Z,999.98
2022-10-24T05:53:07.999Z,999.99
2022-10-24T05:55:14.502Z,999.99
2022-10-24T05:56:12.049Z,999.98
2022-10-24T05:58:16.049Z,1000.01
2022-10-24T05:59:16.069Z,999.99
2022-10-24T06:01:09.622Z,1000.00
2022-10-24T06:02:09.284Z,1000.00
2022-10-24T06:04:13.971Z,999.96
2022-10-24T06:05:13.254Z,999.93
2022-10-24T06:07:17.746Z,999.94
2022-10-24T06:08:17.278Z,999.96
2022-10-24T06:10:21.291Z,999.98
2022-10-24T06:13:15.791Z,1000.09
2022-10-24T06:14:14.261Z,1000.11
2022-10-24T06:16:18.279Z,1000.11
2022-10-24T06:17:18.287Z,1000.14
2022-10-24T06:19:22.783Z,1000.20
2022-10-24T06:20:22.326Z,1000.22
2022-10-24T06:22:26.333Z,1000.23
2022-10-24T06:23:26.350Z,1000.20
2022-10-24T06:25:30.848Z,1000.28
2022-10-24T06:26:30.390Z,1000.21
2022-10-24T06:28:34.400Z,1000.27
2022-10-24T06:29:34.415Z,1000.28
2022-10-24T06:31:38.919Z,1000.37
2022-10-24T06:32:39.652Z,1000.40
2022-10-24T06:34:42.458Z,1000.40
2022-10-24T06:35:42.480Z,1000.38
2022-10-24T06:37:48.226Z,1000.43
2022-10-24T06:38:46.506Z,1000.47
2022-10-24T06:40:50.511Z,1000.50
2022-10-24T06:41:50.529Z,1000.47
2022-10-24T06:43:55.020Z,1000.50
2022-10-24T06:44:54.605Z,1000.52
2022-10-24T06:46:58.578Z,1000.54
2022-10-24T06:47:58.586Z,1000.50
2022-10-24T06:50:03.079Z,1000.53
2022-10-24T06:51:02.612Z,1000.56
2022-10-24T06:52:55.553Z,1000.61
2022-10-24T06:53:55.569Z,1000.55
2022-10-24T06:56:00.062Z,1000.56
2022-10-24T06:56:59.597Z,1000.56
2022-10-24T06:59:03.634Z,1000.53
2022-10-24T07:00:03.634Z,1000.54
2022-10-24T07:02:08.271Z,1000.64
2022-10-24T07:03:07.672Z,1000.63
2022-10-24T07:05:11.691Z,1000.67
2022-10-24T07:06:11.735Z,1000.71
2022-10-24T07:08:16.192Z,1000.74
2022-10-24T07:09:15.935Z,1000.77
2022-10-24T07:11:19.740Z,1000.76
2022-10-24T07:14:24.255Z,1000.72
2022-10-24T07:15:23.795Z,1000.74
2022-10-24T07:17:27.808Z,1000.73
2022-10-24T07:18:27.827Z,1000.75
2022-10-24T07:20:32.365Z,1000.81
2022-10-24T07:21:31.863Z,1000.80
2022-10-24T07:23:24.802Z,1000.87
2022-10-24T07:24:24.822Z,1000.82
2022-10-24T07:26:29.310Z,1000.90
2022-10-24T07:27:28.846Z,1000.88
2022-10-24T07:29:32.866Z,1000.91
2022-10-24T07:30:32.883Z,1000.91
2022-10-24T07:31:32.921Z,1000.91
2022-10-24T07:32:32.938Z,1000.93
2022-10-24T07:33:32.954Z,1000.93
2022-10-24T07:34:32.985Z,1000.98
2022-10-24T07:35:33.010Z,1000.94
2022-10-24T07:36:33.034Z,1000.97
2022-10-24T07:37:33.057Z,1000.92
2022-10-24T07:38:33.083Z,1000.94
2022-10-24T07:39:33.111Z,1000.97
2022-10-24T07:40:33.139Z,1000.98
2022-10-24T07:41:33.163Z,1000.99
2022-10-24T07:42:33.189Z,1000.97
2022-10-24T07:43:33.212Z,1000.98
2022-10-24T07:44:33.238Z,1000.97
2022-10-24T07:45:33.264Z,1000.99
2022-10-24T07:46:33.292Z,1001.03
2022-10-24T07:47:33.316Z,1001.01
2022-10-24T07:48:33.343Z,1001.03
2022-10-24T07:49:33.784Z,1001.03
2022-10-24T07:50:33.396Z,1001.03
2022-10-24T07:51:33.419Z,1001.05
2022-10-24T07:52:33.447Z,1000.96
2022-10-24T07:53:33.471Z,1001.03
2022-10-24T07:54:36.405Z,1001.00
2022-10-24T07:55:33.522Z,1000.92
2022-10-24T07:56:33.549Z,1000.94
2022-10-24T07:57:33.575Z,1000.88
2022-10-24T07:58:33.599Z,1000.89
2022-10-24T07:59:42.486Z,1000.88
2022-10-24T08:00:33.657Z,1000.87
2022-10-24T08:01:33.715Z,1000.84
2022-10-24T08:02:33.738Z,1000.83
2022-10-24T08:03:33.727Z,1000.79
2022-10-24T08:04:33.754Z,1000.79
2022-10-24T08:05:33.777Z,1000.75
2022-10-24T08:06:33.806Z,1000.73
2022-10-24T08:07:33.836Z,1000.73
2022-10-24T08:08:37.927Z,1000.69
2022-10-24T08:09:33.884Z,1000.77
2022-10-24T08:10:33.919Z,1000.76
2022-10-24T08:11:33.935Z,1000.75
2022-10-24T08:12:33.965Z,1000.74
2022-10-24T08:13:33.987Z,1000.73
2022-10-24T08:14:34.016Z,1000.68
2022-10-24T08:15:34.041Z,1000.73
2022-10-24T08:16:34.067Z,1000.68
2022-10-24T08:17:34.095Z,1000.71
2022-10-24T08:18:38.693Z,1000.71
2022-10-24T08:19:34.145Z,1000.70
2022-10-24T08:20:34.171Z,1000.72
2022-10-24T08:21:34.196Z,1000.70
2022-10-24T08:22:34.224Z,1000.71
2022-10-24T08:23:34.250Z,1000.69
2022-10-24T08:24:34.278Z,1000.72
2022-10-24T08:25:34.300Z,1000.72
2022-10-24T08:26:34.330Z,1000.70
2022-10-24T08:27:34.372Z,1000.66
2022-10-24T08:28:34.381Z,1000.66
2022-10-24T08:29:34.405Z,1000.62
2022-10-24T08:30:34.433Z,1000.72
2022-10-24T08:31:34.460Z,1000.73
2022-10-24T08:32:34.489Z,1000.68
2022-10-24T08:33:34.512Z,1000.68
2022-10-24T08:34:34.539Z,1000.70
2022-10-24T08:35:34.565Z,1000.68
2022-10-24T08:36:34.594Z,1000.73
2022-10-24T08:37:34.680Z,1000.70
2022-10-24T08:38:34.646Z,1000.70
2022-10-24T08:39:34.670Z,1000.70
2022-10-24T08:40:34.701Z,1000.66
2022-10-24T08:41:34.720Z,1000.68
2022-10-24T08:42:34.748Z,1000.70
2022-10-24T08:43:34.778Z,1000.72
2022-10-24T08:44:34.804Z,1000.74
2022-10-24T08:45:34.830Z,1000.76
2022-10-24T08:46:34.868Z,1000.73
2022-10-24T08:48:34.909Z,1000.75
2022-10-24T08:49:34.931Z,1000.80
2022-10-24T08:50:34.957Z,1000.72
2022-10-24T08:51:34.985Z,1000.75
2022-10-24T08:52:35.013Z,1000.78
2022-10-24T08:58:33.954Z,1000.82
2022-10-24T09:00:37.976Z,1000.85
2022-10-24T09:01:38.102Z,1000.95
2022-10-24T09:03:57.937Z,1000.85
2022-10-24T09:04:42.027Z,1000.81
2022-10-24T09:06:46.062Z,1000.90
2022-10-24T09:07:46.539Z,1000.91
2022-10-24T09:09:50.576Z,1000.90
2022-10-24T09:10:50.123Z,1000.91
2022-10-24T09:12:43.060Z,1000.84
2022-10-24T09:13:43.073Z,1000.91
2022-10-24T09:15:47.584Z,1000.91
2022-10-24T09:16:47.138Z,1000.94
2022-10-24T09:18:51.671Z,1000.97
2022-10-24T09:19:51.673Z,1000.98
2022-10-24T09:20:51.862Z,1000.96
2022-10-24T09:21:51.718Z,1000.95
2022-10-24T09:22:51.756Z,1001.09
2022-10-24T09:23:51.778Z,1001.04
2022-10-24T09:24:51.799Z,1001.00
2022-10-24T09:25:51.828Z,1001.02
2022-10-24T09:26:51.856Z,1000.99
2022-10-24T09:27:51.884Z,1001.00
2022-10-24T09:28:51.913Z,1000.97
2022-10-24T09:29:51.936Z,1001.02
2022-10-24T09:30:51.972Z,1001.05
2022-10-24T09:31:51.991Z,1001.01
2022-10-24T09:32:52.024Z,1001.00
2022-10-24T09:33:52.045Z,1001.04
2022-10-24T09:34:52.072Z,1001.08
2022-10-24T09:35:52.101Z,1001.11
2022-10-24T09:36:52.127Z,1001.02
2022-10-24T09:37:52.499Z,1001.08
2022-10-24T09:38:52.186Z,1001.10
2022-10-24T09:39:52.210Z,1001.10
2022-10-24T09:40:52.238Z,1001.06
2022-10-24T09:41:52.262Z,1001.12
2022-10-24T09:42:52.295Z,1001.15
2022-10-24T09:43:52.321Z,1001.14
2022-10-24T09:44:52.345Z,1001.16
2022-10-24T09:45:52.374Z,1001.25
2022-10-24T09:46:52.401Z,1001.22
2022-10-24T09:47:52.430Z,1001.22
2022-10-24T09:48:52.453Z,1001.24
2022-10-24T09:49:52.481Z,1001.29
2022-10-24T09:50:52.506Z,1001.29
2022-10-24T09:51:52.536Z,1001.31
2022-10-24T09:52:52.575Z,1001.24
2022-10-24T09:53:52.590Z,1001.27
2022-10-24T09:54:52.618Z,1001.31
2022-10-24T09:55:52.645Z,1001.33
2022-10-24T09:56:54.580Z,1001.32
2022-10-24T09:57:52.701Z,1001.39
2022-10-24T09:58:52.730Z,1001.36
2022-10-24T09:59:52.753Z,1001.41
2022-10-24T10:00:52.785Z,1001.38
2022-10-24T10:01:52.945Z,1001.38
2022-10-24T10:02:52.836Z,1001.40
2022-10-24T10:03:52.868Z,1001.40
2022-10-24T10:04:52.891Z,1001.38
2022-10-24T10:05:52.918Z,1001.43
2022-10-24T10:06:52.987Z,1001.40
2022-10-24T10:07:52.978Z,1001.48
2022-10-24T10:08:53.002Z,1001.43
2022-10-24T10:09:56.454Z,1001.43
2022-10-24T10:10:53.058Z,1001.46
2022-10-24T10:12:02.042Z,1001.47
2022-10-24T10:12:53.110Z,1001.49
2022-10-24T10:13:53.140Z,1001.52
2022-10-24T10:14:53.167Z,1001.57
2022-10-24T10:15:53.194Z,1001.51
2022-10-24T10:16:53.253Z,1001.47
2022-10-24T10:17:53.267Z,1001.53
2022-10-24T10:18:53.278Z,1001.51
2022-10-24T10:19:53.308Z,1001.53
2022-10-24T10:20:53.336Z,1001.62
2022-10-24T10:21:53.378Z,1001.60
2022-10-24T10:22:53.388Z,1001.66
2022-10-24T10:23:53.416Z,1001.67
2022-10-24T10:24:53.444Z,1001.74
2022-10-24T10:25:53.473Z,1001.65
2022-10-24T10:26:53.502Z,1001.75
2022-10-24T10:27:53.527Z,1001.69
2022-10-24T10:28:53.554Z,1001.78
2022-10-24T10:29:53.582Z,1001.72
2022-10-24T10:30:53.609Z,1001.79
2022-10-24T10:31:53.639Z,1001.69
2022-10-24T10:32:53.666Z,1001.74
2022-10-24T10:33:53.696Z,1001.77
2022-10-24T10:34:53.724Z,1001.77
2022-10-24T10:35:53.749Z,1001.69
2022-10-24T10:36:53.775Z,1001.63
2022-10-24T10:37:53.805Z,1001.67
2022-10-24T10:38:53.832Z,1001.65
2022-10-24T10:39:53.860Z,1001.62
2022-10-24T10:40:53.887Z,1001.65
2022-10-24T10:41:53.921Z,1001.61
2022-10-24T10:42:53.952Z,1001.61
2022-10-24T10:43:53.973Z,1001.66
2022-10-24T10:44:54.001Z,1001.64
2022-10-24T10:45:54.029Z,1001.63
2022-10-24T10:46:54.059Z,1001.69
2022-10-24T10:47:54.085Z,1001.68
2022-10-24T10:48:54.113Z,1001.70
2022-10-24T10:49:54.136Z,1001.76
2022-10-24T10:50:54.170Z,1001.71
2022-10-24T10:51:54.197Z,1001.76
2022-10-24T10:52:54.223Z,1001.75
2022-10-24T10:53:54.254Z,1001.72
2022-10-24T10:54:54.283Z,1001.83
2022-10-24T10:55:54.309Z,1001.86
2022-10-24T10:56:54.337Z,1001.90
2022-10-24T10:57:54.366Z,1001.93
2022-10-24T10:58:54.402Z,1001.93
2022-10-24T10:59:54.422Z,1001.91
2022-10-24T11:00:54.453Z,1001.87
2022-10-24T11:01:54.559Z,1001.87
2022-10-24T11:02:54.849Z,1001.92
2022-10-24T11:03:54.534Z,1001.95
2022-10-24T11:04:54.560Z,1001.94
2022-10-24T11:05:54.595Z,1001.93
2022-10-24T11:06:54.679Z,1001.96
2022-10-24T11:07:54.643Z,1001.92
2022-10-24T11:08:54.671Z,1001.93
2022-10-24T11:09:54.713Z,1001.95
2022-10-24T11:10:54.730Z,1001.89
2022-10-24T11:11:54.755Z,1001.92
2022-10-24T11:12:54.782Z,1001.89
2022-10-24T11:13:54.818Z,1001.92
2022-10-24T11:14:54.843Z,1001.91
2022-10-24T11:15:54.865Z,1001.86
2022-10-24T11:16:54.898Z,1001.87
2022-10-24T11:17:54.919Z,1001.84
2022-10-24T11:18:54.959Z,1001.88
2022-10-24T11:19:54.976Z,1001.86
2022-10-24T11:20:55.001Z,1001.81
2022-10-24T11:21:55.038Z,1001.89
2022-10-24T11:22:55.058Z,1001.91
2022-10-24T11:23:55.083Z,1001.88
2022-10-24T11:24:55.109Z,1001.91
2022-10-24T11:25:55.139Z,1001.93
2022-10-24T11:26:55.170Z,1001.97
2022-10-24T11:27:55.197Z,1001.94
2022-10-24T11:28:55.221Z,1001.99
2022-10-24T11:29:55.250Z,1001.92
2022-10-24T11:30:55.282Z,1001.98
2022-10-24T11:31:55.375Z,1002.00
2022-10-24T11:32:55.339Z,1001.99
2022-10-24T11:33:55.359Z,1002.01
2022-10-24T11:34:55.391Z,1002.00
2022-10-24T11:35:55.413Z,1001.96
2022-10-24T11:36:56.063Z,1002.02
2022-10-24T11:37:55.468Z,1002.02
2022-10-24T11:38:55.498Z,1002.03
2022-10-24T11:39:55.526Z,1002.06
2022-10-24T11:40:58.649Z,1002.03
2022-10-24T11:41:55.591Z,1002.06
2022-10-24T11:42:55.608Z,1002.09
2022-10-24T11:43:55.637Z,1001.99
2022-10-24T11:44:55.660Z,1002.00
2022-10-24T11:45:55.694Z,1001.95
2022-10-24T11:46:55.731Z,1001.97
2022-10-24T11:47:55.750Z,1002.02
2022-10-24T11:48:55.772Z,1001.95
2022-10-24T11:49:55.800Z,1001.93
2022-10-24T11:50:55.831Z,1001.92
2022-10-24T11:51:55.862Z,1001.94
2022-10-24T11:52:55.883Z,1001.93
2022-10-24T11:53:55.911Z,1001.98
2022-10-24T11:54:55.942Z,1001.92
2022-10-24T11:55:56.002Z,1001.92
2022-10-24T11:56:56.000Z,1001.97
2022-10-24T11:57:56.028Z,1001.94
2022-10-24T11:58:56.053Z,1001.95
2022-10-24T11:59:56.087Z,1002.04
2022-10-24T12:00:56.109Z,1002.00
2022-10-24T12:01:56.139Z,1002.00
2022-10-24T12:02:56.263Z,1001.99
2022-10-24T12:03:56.198Z,1001.98
2022-10-24T12:04:56.219Z,1002.02
2022-10-24T12:05:56.253Z,1002.02
2022-10-24T12:06:56.279Z,1002.00
2022-10-24T12:07:56.307Z,1002.05
2022-10-24T12:08:56.336Z,1002.00
2022-10-24T12:09:56.365Z,1002.02
2022-10-24T12:10:56.392Z,1002.02
2022-10-24T12:11:56.418Z,1002.03
2022-10-24T12:12:56.881Z,1001.98
2022-10-24T12:13:56.531Z,1002.03
2022-10-24T12:14:56.501Z,1002.01
2022-10-24T12:15:56.533Z,1002.02
2022-10-24T12:16:56.558Z,1001.98
2022-10-24T12:17:56.587Z,1001.99
2022-10-24T12:18:56.618Z,1002.00
2022-10-24T12:19:56.644Z,1002.00
2022-10-24T12:20:56.691Z,1002.04
2022-10-24T12:21:56.700Z,1002.06
2022-10-24T12:22:56.729Z,1001.96
2022-10-24T12:23:56.762Z,1001.95
2022-10-24T12:24:56.784Z,1002.00
2022-10-24T12:25:56.816Z,1002.18
2022-10-24T12:26:56.849Z,1002.06
2022-10-24T12:27:56.871Z,1002.05
2022-10-24T12:28:56.901Z,1002.10
2022-10-24T12:29:56.932Z,1002.10
2022-10-24T12:30:56.956Z,1002.10
2022-10-24T12:31:56.982Z,1002.18
2022-10-24T12:32:57.014Z,1002.14
2022-10-24T12:33:57.045Z,1002.15
2022-10-24T12:35:12.179Z,1002.05
2022-10-24T12:35:57.107Z,1002.17
2022-10-24T12:36:57.128Z,1002.09
2022-10-24T12:37:57.157Z,1002.10
2022-10-24T12:38:57.186Z,1002.25
2022-10-24T12:39:58.496Z,1002.14
2022-10-24T12:40:57.243Z,1002.15
2022-10-24T12:41:57.268Z,1002.18
2022-10-24T12:42:57.301Z,1002.14
2022-10-24T12:43:57.326Z,1002.15
2022-10-24T12:44:57.358Z,1002.15
2022-10-24T12:45:57.381Z,1002.17
2022-10-24T12:46:57.409Z,1002.16
2022-10-24T12:47:57.511Z,1002.21
2022-10-24T12:48:57.468Z,1002.17
2022-10-24T12:49:57.504Z,1002.19
2022-10-24T12:50:57.541Z,1002.15
2022-10-24T12:51:57.554Z,1002.13
2022-10-24T12:52:57.584Z,1002.14
2022-10-24T12:53:57.614Z,1002.15
2022-10-24T12:54:57.650Z,1002.14
2022-10-24T12:55:57.668Z,1002.16
2022-10-24T12:56:57.697Z,1002.12
2022-10-24T12:57:57.728Z,1002.11
2022-10-24T12:58:57.753Z,1002.09
2022-10-24T12:59:57.783Z,1002.06
2022-10-24T13:00:57.819Z,1002.06
2022-10-24T13:02:03.401Z,1002.08
2022-10-24T13:02:57.867Z,1002.09
2022-10-24T13:03:57.898Z,1002.16
2022-10-24T13:04:57.927Z,1002.11
2022-10-24T13:05:57.950Z,1002.14
2022-10-24T13:06:57.985Z,1002.13
2022-10-24T13:07:58.010Z,1002.05
2022-10-24T13:08:58.035Z,1002.02
2022-10-24T13:09:58.066Z,1002.01
2022-10-24T13:10:58.095Z,1002.05
2022-10-24T13:11:58.122Z,1002.05
2022-10-24T13:12:58.309Z,1002.05
2022-10-24T13:13:58.178Z,1001.99
2022-10-24T13:14:58.211Z,1002.05
2022-10-24T13:15:58.233Z,1002.04
2022-10-24T13:16:58.258Z,1002.05
2022-10-24T13:17:58.289Z,1002.06
2022-10-24T13:18:58.318Z,1002.12
2022-10-24T13:19:58.350Z,1002.09
2022-10-24T13:20:58.373Z,1002.08
2022-10-24T13:21:58.403Z,1002.08
2022-10-24T13:22:58.430Z,1002.06
2022-10-24T13:23:58.458Z,1002.04
2022-10-24T13:24:58.489Z,1002.02
2022-10-24T13:25:58.516Z,1002.06
2022-10-24T13:26:58.539Z,1002.03
2022-10-24T13:27:58.572Z,1002.06
2022-10-24T13:28:58.601Z,1002.11
2022-10-24T13:29:58.628Z,1002.18
2022-10-24T13:30:58.661Z,1002.14
2022-10-24T13:31:58.681Z,1002.14
2022-10-24T13:32:58.709Z,1002.14
2022-10-24T13:33:58.736Z,1002.19
2022-10-24T13:34:58.764Z,1002.21
2022-10-24T13:35:58.791Z,1002.16
2022-10-24T13:36:58.821Z,1002.13
2022-10-24T13:38:01.266Z,1002.14
2022-10-24T13:38:58.904Z,1002.09
2022-10-24T13:39:58.906Z,1002.17
2022-10-24T13:40:58.932Z,1002.09
2022-10-24T13:41:58.960Z,1002.10
2022-10-24T13:42:58.991Z,1002.15
2022-10-24T13:43:59.016Z,1002.16
2022-10-24T13:44:59.042Z,1002.15
2022-10-24T13:45:59.069Z,1002.14
2022-10-24T13:46:59.094Z,1002.20
2022-10-24T13:47:59.128Z,1002.19
2022-10-24T13:48:59.152Z,1002.24
2022-10-24T13:49:59.183Z,1002.23
2022-10-24T13:50:59.204Z,1002.27
2022-10-24T13:51:59.237Z,1002.25
2022-10-24T13:52:59.261Z,1002.27
2022-10-24T13:53:59.291Z,1002.28
2022-10-24T13:54:59.411Z,1002.25
2022-10-24T13:55:59.341Z,1002.37
2022-10-24T13:57:01.998Z,1002.29
2022-10-24T13:57:59.399Z,1002.21
2022-10-24T13:58:59.429Z,1002.25
2022-10-24T13:59:59.456Z,1002.27